Hafnia Sunda — 9V3281 — position and weather

sailwx.info

Track history (hours):
 
Tides and Currents Weather Stations Pressure Air Temp Water Temp Dewpoint Dewpoint Depression Visibility Wind Speed Wind Dir Waves Ship Positions

Hafnia Sunda

Last reported at 2017-Nov-19 04:15 UTC. Time now 2017-Nov-22 03:45 UTC.
Position N 52°08' E 003°34'.

Length 184 m; draft 8.2 m.

Type: Tanker. MMSI: 566579000.

Date/timePositionNaut miles runAvg speedWind from/ knotsBaromVisibWave heightAir tempDewpointWater temp
2017-Nov-19 04:15N 52°08' E 003°34'311.4
2017-Nov-19 04:00N 52°07' E 003°39'611.3
2017-Nov-19 03:30N 52°05' E 003°47'510.4
2017-Nov-19 03:00N 52°04' E 003°55'3 6.5
2017-Nov-19 02:31N 52°01' E 003°59'5 9.1
2017-Nov-19 02:01N 51°59' E 004°05'3 4.8
2017-Nov-19 01:28N 51°57' E 004°09'0 0.0
2017-Nov-19 00:58N 51°57' E 004°09'0 0.0
2017-Nov-19 00:28N 51°57' E 004°09'0 0.0
2017-Nov-18 23:58N 51°57' E 004°09'0 0.0
2017-Nov-18 23:28N 51°57' E 004°09'0 0.0
2017-Nov-18 22:58N 51°57' E 004°09'0 0.0
2017-Nov-18 22:28N 51°57' E 004°09'0 0.0
2017-Nov-18 21:55N 51°57' E 004°09'0 0.0
2017-Nov-18 21:28N 51°57' E 004°09'0 0.0
2017-Nov-18 20:58N 51°57' E 004°09'0 0.0
2017-Nov-18 20:28N 51°57' E 004°09'0 0.0
2017-Nov-18 19:58N 51°57' E 004°09'0 0.0
2017-Nov-18 19:28N 51°57' E 004°09'0 0.0
2017-Nov-18 18:58N 51°57' E 004°09'0 0.0
2017-Nov-18 18:22N 51°57' E 004°09'0 0.0
2017-Nov-18 17:58N 51°57' E 004°09'0 0.0
2017-Nov-18 17:28N 51°57' E 004°09'0 0.0
2017-Nov-18 16:58N 51°57' E 004°09'0 0.0
2017-Nov-18 16:28N 51°57' E 004°09'0 0.0
2017-Nov-18 15:58N 51°57' E 004°09'0 0.0
2017-Nov-18 15:28N 51°57' E 004°09'0 0.0
2017-Nov-18 14:55N 51°57' E 004°09'0 0.0
2017-Nov-18 14:25N 51°57' E 004°09'0 0.0
2017-Nov-18 13:58N 51°57' E 004°09'0 0.0
2017-Nov-18 13:28N 51°57' E 004°09'0 0.0
2017-Nov-18 12:52N 51°57' E 004°09'0 0.0
2017-Nov-18 12:28N 51°57' E 004°09'0 0.0
2017-Nov-18 11:58N 51°57' E 004°09'0 0.0
2017-Nov-18 11:19N 51°57' E 004°09'0 0.0
2017-Nov-18 10:58N 51°57' E 004°09'0 0.0
2017-Nov-18 09:43N 51°57' E 004°09'0 0.0
2017-Nov-18 09:22N 51°57' E 004°09'0 0.0
2017-Nov-18 08:58N 51°57' E 004°09'0 0.0
2017-Nov-18 08:28N 51°57' E 004°09'0 0.0
2017-Nov-18 07:55N 51°57' E 004°09'0 0.0
2017-Nov-18 07:22N 51°57' E 004°09'0 0.0
2017-Nov-18 06:58N 51°57' E 004°09'0 0.0
2017-Nov-18 06:28N 51°57' E 004°09'0 0.0
2017-Nov-18 05:58N 51°57' E 004°09'0 0.0
2017-Nov-18 05:28N 51°57' E 004°09'0 0.0
2017-Nov-18 04:55N 51°57' E 004°09'0 0.0
2017-Nov-18 04:28N 51°57' E 004°09'0 0.0
2017-Nov-18 03:58N 51°57' E 004°09'0 0.0
2017-Nov-18 03:19N 51°57' E 004°09'0 0.0
2017-Nov-18 02:49N 51°57' E 004°09'0 0.0
2017-Nov-18 02:28N 51°57' E 004°09'0 0.0
2017-Nov-18 01:49N 51°57' E 004°09'0 0.0
2017-Nov-18 01:22N 51°57' E 004°09'0 0.0
2017-Nov-18 00:58N 51°57' E 004°09'0 0.0
2017-Nov-18 00:28N 51°57' E 004°09'0 0.0
2017-Nov-17 23:58N 51°57' E 004°09'0 0.0
2017-Nov-17 23:28N 51°57' E 004°09'0 0.0
2017-Nov-17 22:58N 51°57' E 004°09'0 0.0
2017-Nov-17 22:28N 51°57' E 004°09'0 0.0
2017-Nov-17 21:55N 51°57' E 004°09'0 0.0
2017-Nov-17 21:28N 51°57' E 004°09'0 0.0
2017-Nov-17 20:58N 51°57' E 004°09'0 0.0
2017-Nov-17 20:22N 51°57' E 004°09'0 0.0
2017-Nov-17 19:58N 51°57' E 004°09'0 0.0
2017-Nov-17 19:28N 51°57' E 004°09'0 1.0
2017-Nov-17 19:00N 51°58' E 004°08'4 8.1
2017-Nov-17 18:30N 51°59' E 004°02'611.2
2017-Nov-17 18:01N 52°00' E 003°53'5 9.3
2017-Nov-17 17:30N 52°01' E 003°46'3 6.5
2017-Nov-17 17:00N 52°04' E 003°44'3 7.0
2017-Nov-17 16:30N 52°07' E 003°43'0 0.5
2017-Nov-17 15:50N 52°07' E 003°43'0 0.0
2017-Nov-17 15:26N 52°07' E 003°43'0 0.0
2017-Nov-17 14:26N 52°07' E 003°43'0 0.0
2017-Nov-17 13:08N 52°07' E 003°43'0 0.0
2017-Nov-17 12:56N 52°07' E 003°43'0 0.1
2017-Nov-17 12:02N 52°07' E 003°43'0 0.1
2017-Nov-17 11:44N 52°07' E 003°43'0 0.1
2017-Nov-17 11:14N 52°07' E 003°43'0 0.2
2017-Nov-17 10:59N 52°07' E 003°43'0 0.1
2017-Nov-17 10:26N 52°07' E 003°43'0 0.0
2017-Nov-17 09:56N 52°07' E 003°43'0 0.0
2017-Nov-17 09:26N 52°07' E 003°43'0 0.0
2017-Nov-17 08:59N 52°07' E 003°43'0 0.0
2017-Nov-17 08:29N 52°07' E 003°43'0 0.0
2017-Nov-17 07:56N 52°07' E 003°43'0 0.0
2017-Nov-17 07:29N 52°07' E 003°43'0 0.0
2017-Nov-17 06:59N 52°07' E 003°43'0 0.0
2017-Nov-17 06:29N 52°07' E 003°43'0 0.0
2017-Nov-17 05:59N 52°07' E 003°43'0 0.0
2017-Nov-17 05:26N 52°07' E 003°43'0 0.1
2017-Nov-17 04:47N 52°07' E 003°43'0 0.0
2017-Nov-17 04:26N 52°07' E 003°43'0 0.1
2017-Nov-17 03:02N 52°07' E 003°43'0 0.0
2017-Nov-17 02:50N 52°07' E 003°43'0 0.0
2017-Nov-17 01:33N 52°07' E 003°43'0 1.2
2017-Nov-17 01:30N 52°07' E 003°43'2 4.9
2017-Nov-17 01:00N 52°07' E 003°39'5 9.8
2017-Nov-17 00:30N 52°07' E 003°31'  
2017-Nov-10 15:18N 69°03' E 033°05'2 6.7
2017-Nov-10 15:00N 69°02' E 033°03'2 3.5
2017-Nov-10 14:30N 68°60' E 033°02'0 0.1
2017-Nov-10 13:58N 68°60' E 033°02'0 0.0
2017-Nov-10 13:22N 68°60' E 033°02'0 0.0
2017-Nov-10 12:58N 68°60' E 033°02'0 0.0
2017-Nov-10 12:28N 68°60' E 033°02'0 0.0
2017-Nov-10 11:58N 68°60' E 033°02'0 0.0
2017-Nov-10 11:28N 68°60' E 033°02'0 0.0
2017-Nov-10 10:58N 68°60' E 033°02'0 0.2
2017-Nov-10 10:25N 68°60' E 033°02'1 1.6
2017-Nov-10 10:00N 68°59' E 033°02'2 3.3
2017-Nov-10 09:30N 68°58' E 033°02'1 2.6
2017-Nov-10 09:00N 68°56' E 033°01'0 0.7
2017-Nov-10 08:29N 68°56' E 033°02'0 0.0
2017-Nov-10 07:56N 68°56' E 033°02'0 0.0
2017-Nov-10 07:26N 68°56' E 033°02'0 0.0
2017-Nov-10 06:56N 68°56' E 033°02'0 0.0
2017-Nov-10 05:53N 68°56' E 033°02'0 0.0
2017-Nov-10 04:50N 68°56' E 033°02'0 0.0
2017-Nov-10 04:26N 68°56' E 033°02'0 0.0
2017-Nov-10 03:56N 68°56' E 033°02'0 0.0
2017-Nov-10 03:26N 68°56' E 033°02'0 0.0
2017-Nov-10 02:56N 68°56' E 033°02'0 0.0
2017-Nov-10 02:26N 68°56' E 033°02'0 0.0
2017-Nov-10 01:44N 68°56' E 033°02'0 0.0
2017-Nov-10 01:26N 68°56' E 033°02'0 0.0
2017-Nov-10 00:39N 68°56' E 033°02'0 0.0
2017-Nov-10 00:27N 68°56' E 033°02'0 0.0
2017-Nov-09 23:15N 68°56' E 033°02'0 0.0
2017-Nov-09 22:51N 68°56' E 033°02'0 0.0
2017-Nov-09 22:27N 68°56' E 033°02'0 0.0
2017-Nov-09 21:03N 68°56' E 033°02'0 0.0
2017-Nov-09 20:45N 68°56' E 033°02'0 0.0
2017-Nov-09 20:27N 68°56' E 033°02'0 0.0
2017-Nov-09 19:51N 68°56' E 033°02'0 0.0
2017-Nov-09 19:21N 68°56' E 033°02'0 0.0
2017-Nov-09 18:42N 68°56' E 033°02'0 0.0
2017-Nov-09 18:30N 68°56' E 033°02'0 0.0
2017-Nov-09 18:00N 68°56' E 033°02'0 0.0
2017-Nov-09 17:24N 68°56' E 033°02'0 0.0
2017-Nov-09 16:42N 68°56' E 033°02'0 0.0
2017-Nov-09 13:18N 68°56' E 033°02'0 0.0
2017-Nov-09 12:54N 68°56' E 033°02'0 0.0
2017-Nov-09 12:12N 68°56' E 033°02'0 0.0
2017-Nov-09 11:48N 68°56' E 033°02'0 0.0
2017-Nov-09 09:48N 68°56' E 033°02'0 0.0
2017-Nov-09 08:53N 68°56' E 033°02'0 0.0
2017-Nov-09 07:33N 68°56' E 033°02'0 0.0
2017-Nov-09 07:27N 68°56' E 033°02'0 0.0
2017-Nov-09 06:57N 68°56' E 033°02'0 0.0
2017-Nov-09 06:27N 68°56' E 033°02'0 0.0
2017-Nov-09 05:57N 68°56' E 033°02'0 0.0
2017-Nov-09 05:27N 68°56' E 033°02'0 0.0
2017-Nov-09 04:57N 68°56' E 033°02'0 0.0
2017-Nov-09 04:27N 68°56' E 033°02'  
Track history (hours):
 
Tides and Currents Weather Stations Pressure Air Temp Water Temp Dewpoint Dewpoint Depression Visibility Wind Speed Wind Dir Waves Ship Positions

Hafnia Sunda

Last reported at 2017-Nov-19 04:15 UTC. Time now 2017-Nov-22 03:45 UTC.
Position N 52°08' E 003°34'.

Length 184 m; draft 8.2 m.

Type: Tanker. MMSI: 566579000.

Date/timePositionNaut miles runAvg speedWind from/ knotsBaromVisibWave heightAir tempDewpointWater temp
2017-Nov-19 04:15N 52°08' E 003°34'311.4
2017-Nov-19 04:00N 52°07' E 003°39'611.3
2017-Nov-19 03:30N 52°05' E 003°47'510.4
2017-Nov-19 03:00N 52°04' E 003°55'3 6.5
2017-Nov-19 02:31N 52°01' E 003°59'5 9.1
2017-Nov-19 02:01N 51°59' E 004°05'3 4.8
2017-Nov-19 01:28N 51°57' E 004°09'0 0.0
2017-Nov-19 00:58N 51°57' E 004°09'0 0.0
2017-Nov-19 00:28N 51°57' E 004°09'0 0.0
2017-Nov-18 23:58N 51°57' E 004°09'0 0.0
2017-Nov-18 23:28N 51°57' E 004°09'0 0.0
2017-Nov-18 22:58N 51°57' E 004°09'0 0.0
2017-Nov-18 22:28N 51°57' E 004°09'0 0.0
2017-Nov-18 21:55N 51°57' E 004°09'0 0.0
2017-Nov-18 21:28N 51°57' E 004°09'0 0.0
2017-Nov-18 20:58N 51°57' E 004°09'0 0.0
2017-Nov-18 20:28N 51°57' E 004°09'0 0.0
2017-Nov-18 19:58N 51°57' E 004°09'0 0.0
2017-Nov-18 19:28N 51°57' E 004°09'0 0.0
2017-Nov-18 18:58N 51°57' E 004°09'0 0.0
2017-Nov-18 18:22N 51°57' E 004°09'0 0.0
2017-Nov-18 17:58N 51°57' E 004°09'0 0.0
2017-Nov-18 17:28N 51°57' E 004°09'0 0.0
2017-Nov-18 16:58N 51°57' E 004°09'0 0.0
2017-Nov-18 16:28N 51°57' E 004°09'0 0.0
2017-Nov-18 15:58N 51°57' E 004°09'0 0.0
2017-Nov-18 15:28N 51°57' E 004°09'0 0.0
2017-Nov-18 14:55N 51°57' E 004°09'0 0.0
2017-Nov-18 14:25N 51°57' E 004°09'0 0.0
2017-Nov-18 13:58N 51°57' E 004°09'0 0.0
2017-Nov-18 13:28N 51°57' E 004°09'0 0.0
2017-Nov-18 12:52N 51°57' E 004°09'0 0.0
2017-Nov-18 12:28N 51°57' E 004°09'0 0.0
2017-Nov-18 11:58N 51°57' E 004°09'0 0.0
2017-Nov-18 11:19N 51°57' E 004°09'0 0.0
2017-Nov-18 10:58N 51°57' E 004°09'0 0.0
2017-Nov-18 09:43N 51°57' E 004°09'0 0.0
2017-Nov-18 09:22N 51°57' E 004°09'0 0.0
2017-Nov-18 08:58N 51°57' E 004°09'0 0.0
2017-Nov-18 08:28N 51°57' E 004°09'0 0.0
2017-Nov-18 07:55N 51°57' E 004°09'0 0.0
2017-Nov-18 07:22N 51°57' E 004°09'0 0.0
2017-Nov-18 06:58N 51°57' E 004°09'0 0.0
2017-Nov-18 06:28N 51°57' E 004°09'0 0.0
2017-Nov-18 05:58N 51°57' E 004°09'0 0.0
2017-Nov-18 05:28N 51°57' E 004°09'0 0.0
2017-Nov-18 04:55N 51°57' E 004°09'0 0.0
2017-Nov-18 04:28N 51°57' E 004°09'0 0.0
2017-Nov-18 03:58N 51°57' E 004°09'0 0.0
2017-Nov-18 03:19N 51°57' E 004°09'0 0.0
2017-Nov-18 02:49N 51°57' E 004°09'0 0.0
2017-Nov-18 02:28N 51°57' E 004°09'0 0.0
2017-Nov-18 01:49N 51°57' E 004°09'0 0.0
2017-Nov-18 01:22N 51°57' E 004°09'0 0.0
2017-Nov-18 00:58N 51°57' E 004°09'0 0.0
2017-Nov-18 00:28N 51°57' E 004°09'0 0.0
2017-Nov-17 23:58N 51°57' E 004°09'0 0.0
2017-Nov-17 23:28N 51°57' E 004°09'0 0.0
2017-Nov-17 22:58N 51°57' E 004°09'0 0.0
2017-Nov-17 22:28N 51°57' E 004°09'0 0.0
2017-Nov-17 21:55N 51°57' E 004°09'0 0.0
2017-Nov-17 21:28N 51°57' E 004°09'0 0.0
2017-Nov-17 20:58N 51°57' E 004°09'0 0.0
2017-Nov-17 20:22N 51°57' E 004°09'0 0.0
2017-Nov-17 19:58N 51°57' E 004°09'0 0.0
2017-Nov-17 19:28N 51°57' E 004°09'0 1.0
2017-Nov-17 19:00N 51°58' E 004°08'4 8.1
2017-Nov-17 18:30N 51°59' E 004°02'611.2
2017-Nov-17 18:01N 52°00' E 003°53'5 9.3
2017-Nov-17 17:30N 52°01' E 003°46'3 6.5
2017-Nov-17 17:00N 52°04' E 003°44'3 7.0
2017-Nov-17 16:30N 52°07' E 003°43'0 0.5
2017-Nov-17 15:50N 52°07' E 003°43'0 0.0
2017-Nov-17 15:26N 52°07' E 003°43'0 0.0
2017-Nov-17 14:26N 52°07' E 003°43'0 0.0
2017-Nov-17 13:08N 52°07' E 003°43'0 0.0
2017-Nov-17 12:56N 52°07' E 003°43'0 0.1
2017-Nov-17 12:02N 52°07' E 003°43'0 0.1
2017-Nov-17 11:44N 52°07' E 003°43'0 0.1
2017-Nov-17 11:14N 52°07' E 003°43'0 0.2
2017-Nov-17 10:59N 52°07' E 003°43'0 0.1
2017-Nov-17 10:26N 52°07' E 003°43'0 0.0
2017-Nov-17 09:56N 52°07' E 003°43'0 0.0
2017-Nov-17 09:26N 52°07' E 003°43'0 0.0
2017-Nov-17 08:59N 52°07' E 003°43'0 0.0
2017-Nov-17 08:29N 52°07' E 003°43'0 0.0
2017-Nov-17 07:56N 52°07' E 003°43'0 0.0
2017-Nov-17 07:29N 52°07' E 003°43'0 0.0
2017-Nov-17 06:59N 52°07' E 003°43'0 0.0
2017-Nov-17 06:29N 52°07' E 003°43'0 0.0
2017-Nov-17 05:59N 52°07' E 003°43'0 0.0
2017-Nov-17 05:26N 52°07' E 003°43'0 0.1
2017-Nov-17 04:47N 52°07' E 003°43'0 0.0
2017-Nov-17 04:26N 52°07' E 003°43'0 0.1
2017-Nov-17 03:02N 52°07' E 003°43'0 0.0
2017-Nov-17 02:50N 52°07' E 003°43'0 0.0
2017-Nov-17 01:33N 52°07' E 003°43'0 1.2
2017-Nov-17 01:30N 52°07' E 003°43'2 4.9
2017-Nov-17 01:00N 52°07' E 003°39'5 9.8
2017-Nov-17 00:30N 52°07' E 003°31'  
2017-Nov-10 15:18N 69°03' E 033°05'2 6.7
2017-Nov-10 15:00N 69°02' E 033°03'2 3.5
2017-Nov-10 14:30N 68°60' E 033°02'0 0.1
2017-Nov-10 13:58N 68°60' E 033°02'0 0.0
2017-Nov-10 13:22N 68°60' E 033°02'0 0.0
2017-Nov-10 12:58N 68°60' E 033°02'0 0.0
2017-Nov-10 12:28N 68°60' E 033°02'0 0.0
2017-Nov-10 11:58N 68°60' E 033°02'0 0.0
2017-Nov-10 11:28N 68°60' E 033°02'0 0.0
2017-Nov-10 10:58N 68°60' E 033°02'0 0.2
2017-Nov-10 10:25N 68°60' E 033°02'1 1.6
2017-Nov-10 10:00N 68°59' E 033°02'2 3.3
2017-Nov-10 09:30N 68°58' E 033°02'1 2.6
2017-Nov-10 09:00N 68°56' E 033°01'0 0.7
2017-Nov-10 08:29N 68°56' E 033°02'0 0.0
2017-Nov-10 07:56N 68°56' E 033°02'0 0.0
2017-Nov-10 07:26N 68°56' E 033°02'0 0.0
2017-Nov-10 06:56N 68°56' E 033°02'0 0.0
2017-Nov-10 05:53N 68°56' E 033°02'0 0.0
2017-Nov-10 04:50N 68°56' E 033°02'0 0.0
2017-Nov-10 04:26N 68°56' E 033°02'0 0.0
2017-Nov-10 03:56N 68°56' E 033°02'0 0.0
2017-Nov-10 03:26N 68°56' E 033°02'0 0.0
2017-Nov-10 02:56N 68°56' E 033°02'0 0.0
2017-Nov-10 02:26N 68°56' E 033°02'0 0.0
2017-Nov-10 01:44N 68°56' E 033°02'0 0.0
2017-Nov-10 01:26N 68°56' E 033°02'0 0.0
2017-Nov-10 00:39N 68°56' E 033°02'0 0.0
2017-Nov-10 00:27N 68°56' E 033°02'0 0.0
2017-Nov-09 23:15N 68°56' E 033°02'0 0.0
2017-Nov-09 22:51N 68°56' E 033°02'0 0.0
2017-Nov-09 22:27N 68°56' E 033°02'0 0.0
2017-Nov-09 21:03N 68°56' E 033°02'0 0.0
2017-Nov-09 20:45N 68°56' E 033°02'0 0.0
2017-Nov-09 20:27N 68°56' E 033°02'0 0.0
2017-Nov-09 19:51N 68°56' E 033°02'0 0.0
2017-Nov-09 19:21N 68°56' E 033°02'0 0.0
2017-Nov-09 18:42N 68°56' E 033°02'0 0.0
2017-Nov-09 18:30N 68°56' E 033°02'0 0.0
2017-Nov-09 18:00N 68°56' E 033°02'0 0.0
2017-Nov-09 17:24N 68°56' E 033°02'0 0.0
2017-Nov-09 16:42N 68°56' E 033°02'0 0.0
2017-Nov-09 13:18N 68°56' E 033°02'0 0.0
2017-Nov-09 12:54N 68°56' E 033°02'0 0.0
2017-Nov-09 12:12N 68°56' E 033°02'0 0.0
2017-Nov-09 11:48N 68°56' E 033°02'0 0.0
2017-Nov-09 09:48N 68°56' E 033°02'0 0.0
2017-Nov-09 08:53N 68°56' E 033°02'0 0.0
2017-Nov-09 07:33N 68°56' E 033°02'0 0.0
2017-Nov-09 07:27N 68°56' E 033°02'0 0.0
2017-Nov-09 06:57N 68°56' E 033°02'0 0.0
2017-Nov-09 06:27N 68°56' E 033°02'0 0.0
2017-Nov-09 05:57N 68°56' E 033°02'0 0.0
2017-Nov-09 05:27N 68°56' E 033°02'0 0.0
2017-Nov-09 04:57N 68°56' E 033°02'0 0.0
2017-Nov-09 04:27N 68°56' E 033°02'  

Dump ship's entire track history